createdAt,value
2019-03-09T00:04:42.061Z,5.07
2019-03-09T00:09:49.171Z,4.52
2019-03-09T00:14:56.306Z,5.72
2019-03-09T00:20:03.657Z,4.93
2019-03-09T00:25:10.752Z,4.65
2019-03-09T00:30:17.848Z,4.63
2019-03-09T00:35:24.941Z,5.57
2019-03-09T00:40:32.072Z,5.64
2019-03-09T00:45:39.190Z,4.72
2019-03-09T00:50:46.316Z,4.47
2019-03-09T00:55:53.531Z,5.39
2019-03-09T01:01:00.643Z,5.68
2019-03-09T01:06:07.744Z,5.23
2019-03-09T01:11:14.906Z,4.01
2019-03-09T01:16:22.007Z,5.17
2019-03-09T01:21:29.100Z,4.37
2019-03-09T01:26:36.249Z,5.43
2019-03-09T01:31:43.354Z,4.63
2019-03-09T01:36:50.773Z,4.55
2019-03-09T01:41:57.964Z,4.16
2019-03-09T01:47:05.089Z,4.50
2019-03-09T01:52:12.454Z,4.23
2019-03-09T01:57:19.600Z,3.50
2019-03-09T02:02:26.704Z,3.85
2019-03-09T02:07:33.826Z,4.18
2019-03-09T02:12:41.008Z,3.61
2019-03-09T02:17:48.134Z,3.23
2019-03-09T02:22:55.232Z,3.81
2019-03-09T02:28:02.369Z,3.82
2019-03-09T02:33:09.489Z,3.89
2019-03-09T02:38:16.591Z,4.03
2019-03-09T02:43:23.689Z,2.95
2019-03-09T02:48:32.474Z,3.77
2019-03-09T02:53:40.840Z,2.92
2019-03-09T02:58:48.062Z,2.34
2019-03-09T03:03:56.305Z,2.11
2019-03-09T03:09:04.375Z,2.09
2019-03-09T03:14:11.542Z,1.82
2019-03-09T03:19:18.635Z,1.73
2019-03-09T03:24:26.424Z,1.37
2019-03-09T03:29:35.340Z,1.64
2019-03-09T03:34:43.710Z,1.48
2019-03-09T03:39:50.811Z,1.67
2019-03-09T03:44:57.927Z,1.49
2019-03-09T03:50:05.001Z,1.91
2019-03-09T03:55:12.097Z,1.72
2019-03-09T04:00:19.226Z,2.42
2019-03-09T04:05:26.281Z,2.68
2019-03-09T04:10:33.465Z,2.71
2019-03-09T04:15:40.551Z,2.79
2019-03-09T04:20:47.652Z,2.65
2019-03-09T04:25:54.851Z,2.69
2019-03-09T04:31:01.953Z,2.29
2019-03-09T04:36:09.035Z,2.19
2019-03-09T04:41:16.151Z,1.74
2019-03-09T04:46:23.281Z,1.69
2019-03-09T04:51:30.438Z,1.58
2019-03-09T04:56:37.535Z,1.80
2019-03-09T05:01:45.301Z,1.74
2019-03-09T05:06:52.528Z,1.83
2019-03-09T05:11:59.596Z,1.95
2019-03-09T05:17:06.632Z,2.11
2019-03-09T05:22:13.663Z,2.41
2019-03-09T05:27:20.713Z,2.49
2019-03-09T05:32:27.788Z,3.18
2019-03-09T05:37:42.843Z,2.84
2019-03-09T05:42:41.469Z,3.39
2019-03-09T05:47:48.519Z,3.34
2019-03-09T05:52:55.590Z,3.27
2019-03-09T05:58:02.597Z,3.54
2019-03-09T06:03:09.638Z,3.70
2019-03-09T06:08:16.715Z,3.64
2019-03-09T06:13:23.760Z,4.08
2019-03-09T06:18:30.805Z,3.70
2019-03-09T06:23:37.850Z,6.03
2019-03-09T06:28:44.941Z,8.03
2019-03-09T06:33:52.187Z,5.20
2019-03-09T06:38:59.490Z,4.35
2019-03-09T06:44:06.706Z,4.26
2019-03-09T06:49:13.806Z,4.36
2019-03-09T06:54:20.890Z,4.44
2019-03-09T06:59:27.958Z,4.40
2019-03-09T07:04:35.022Z,4.51
2019-03-09T07:09:42.217Z,5.01
2019-03-09T07:14:49.301Z,4.92
2019-03-09T07:19:56.723Z,4.32
2019-03-09T07:25:03.837Z,4.16
2019-03-09T07:30:10.947Z,3.79
2019-03-09T07:35:18.115Z,3.37
2019-03-09T07:40:25.200Z,3.53
2019-03-09T07:45:32.268Z,3.77
2019-03-09T07:50:39.334Z,3.61
2019-03-09T07:55:46.388Z,3.55
2019-03-09T08:00:53.706Z,3.84
2019-03-09T08:06:00.869Z,3.62
2019-03-09T08:11:07.972Z,3.41
2019-03-09T08:16:15.019Z,3.48
2019-03-09T08:21:22.071Z,3.29
2019-03-09T08:26:29.085Z,3.24
2019-03-09T08:31:36.185Z,3.70
2019-03-09T08:36:43.252Z,3.64
2019-03-09T08:41:50.332Z,3.28
2019-03-09T08:46:57.566Z,3.93
2019-03-09T08:52:05.125Z,2.94
2019-03-09T08:57:12.662Z,3.65
2019-03-09T09:02:20.409Z,3.90
2019-03-09T09:07:27.416Z,3.22
2019-03-09T09:12:34.488Z,3.36
2019-03-09T09:17:41.631Z,3.39
2019-03-09T09:22:48.800Z,3.90
2019-03-09T09:27:55.850Z,3.88
2019-03-09T09:33:02.986Z,4.01
2019-03-09T09:38:10.057Z,3.98
2019-03-09T09:43:17.520Z,4.34
2019-03-09T09:48:24.673Z,4.32
2019-03-09T09:53:31.804Z,3.81
2019-03-09T09:58:39.072Z,3.77
2019-03-09T10:03:46.152Z,4.88
2019-03-09T10:08:53.491Z,5.69
2019-03-09T10:14:00.566Z,4.14
2019-03-09T10:19:07.767Z,3.60
2019-03-09T10:24:14.878Z,4.42
2019-03-09T10:29:21.937Z,4.18
2019-03-09T10:34:29.180Z,4.43
2019-03-09T10:39:38.408Z,4.79
2019-03-09T10:44:45.567Z,3.41
2019-03-09T10:49:52.880Z,3.93
2019-03-09T10:55:00.009Z,3.76
2019-03-09T11:00:07.323Z,3.05
2019-03-09T11:05:16.147Z,3.85
2019-03-09T11:10:23.378Z,3.49
2019-03-09T11:15:30.437Z,3.56
2019-03-09T11:20:37.512Z,3.12
2019-03-09T11:25:44.804Z,3.61
2019-03-09T11:30:52.010Z,4.70
2019-03-09T11:35:59.167Z,2.94
2019-03-09T11:41:06.324Z,3.42
2019-03-09T11:46:13.779Z,3.22
2019-03-09T11:51:20.970Z,2.63
2019-03-09T11:56:28.438Z,3.18
2019-03-09T12:01:35.825Z,2.97
2019-03-09T12:06:42.929Z,2.74
2019-03-09T12:11:50.822Z,2.36
2019-03-09T12:16:56.684Z,2.25
2019-03-09T12:22:04.106Z,2.28
2019-03-09T12:27:11.423Z,2.13
2019-03-09T12:32:18.530Z,2.86
2019-03-09T12:37:25.599Z,2.41
2019-03-09T12:42:32.658Z,2.59
2019-03-09T12:47:39.712Z,3.24
2019-03-09T12:52:47.699Z,3.26
2019-03-09T12:57:55.055Z,2.33
2019-03-09T13:03:02.184Z,2.94
2019-03-09T13:08:09.372Z,1.94
2019-03-09T13:13:16.559Z,2.37
2019-03-09T13:18:24.094Z,1.89
2019-03-09T13:23:31.376Z,1.94
2019-03-09T13:28:38.442Z,1.75
2019-03-09T13:33:45.741Z,2.86
2019-03-09T13:38:53.282Z,3.43
2019-03-09T13:44:00.350Z,5.01
2019-03-09T13:49:07.645Z,5.67
2019-03-09T13:54:14.892Z,6.70
2019-03-09T13:59:22.031Z,6.03
2019-03-09T14:04:29.795Z,8.46
2019-03-09T14:09:36.982Z,7.40
2019-03-09T14:14:45.242Z,9.81
2019-03-09T14:19:54.218Z,7.48
2019-03-09T14:25:02.520Z,7.95
2019-03-09T14:30:09.837Z,7.14
2019-03-09T14:35:17.153Z,8.40
2019-03-09T14:40:24.251Z,9.20
2019-03-09T14:45:31.388Z,8.57
2019-03-09T14:50:38.390Z,10.99
2019-03-09T14:55:45.733Z,10.33
2019-03-09T15:00:53.364Z,10.93
2019-03-09T15:06:00.439Z,13.39
2019-03-09T15:11:07.628Z,13.65
2019-03-09T15:16:14.891Z,14.15
2019-03-09T15:21:21.964Z,12.95
2019-03-09T15:26:29.093Z,12.74
2019-03-09T15:31:36.550Z,13.64
2019-03-09T15:36:43.743Z,12.95
2019-03-09T15:41:51.399Z,15.45
2019-03-09T15:46:58.807Z,12.73
2019-03-09T15:52:05.932Z,13.20
2019-03-09T15:57:13.224Z,11.49
2019-03-09T16:02:20.704Z,12.56
2019-03-09T16:07:27.998Z,13.14
2019-03-09T16:12:35.774Z,12.17
2019-03-09T16:17:43.065Z,13.65
2019-03-09T16:22:50.864Z,13.46
2019-03-09T16:27:58.564Z,12.82
2019-03-09T16:33:05.677Z,10.54
2019-03-09T16:38:13.092Z,11.86
2019-03-09T16:43:24.222Z,12.85
2019-03-09T16:48:23.368Z,10.12
2019-03-09T16:53:31.496Z,10.13
2019-03-09T16:58:39.705Z,9.71
2019-03-09T17:03:47.519Z,5.70
2019-03-09T17:08:55.471Z,4.50
2019-03-09T17:14:02.696Z,4.40
2019-03-09T17:19:10.550Z,4.32
2019-03-09T17:24:18.251Z,5.00
2019-03-09T17:29:26.295Z,6.68
2019-03-09T17:34:33.923Z,5.05
2019-03-09T17:39:42.150Z,4.95
2019-03-09T17:44:50.077Z,4.92
2019-03-09T17:49:57.590Z,5.47
2019-03-09T17:55:05.310Z,6.44
2019-03-09T18:00:13.034Z,6.49
2019-03-09T18:05:20.533Z,6.00
2019-03-09T18:10:29.002Z,6.29
2019-03-09T18:15:36.181Z,7.41
2019-03-09T18:20:43.920Z,6.45
2019-03-09T18:25:51.876Z,6.51
2019-03-09T18:30:59.128Z,7.14
2019-03-09T18:36:06.889Z,6.50
2019-03-09T18:41:14.702Z,7.64
2019-03-09T18:46:23.161Z,6.76
2019-03-09T18:51:31.221Z,6.85
2019-03-09T18:56:38.673Z,8.27
2019-03-09T19:01:46.315Z,6.68
2019-03-09T19:06:54.089Z,8.48
2019-03-09T19:12:01.737Z,7.65
2019-03-09T19:17:09.496Z,6.69
2019-03-09T19:22:17.132Z,7.03
2019-03-09T19:27:24.792Z,7.62
2019-03-09T19:32:32.441Z,8.38
2019-03-09T19:37:40.156Z,8.90
2019-03-09T19:42:47.943Z,7.99
2019-03-09T19:47:55.926Z,7.12
2019-03-09T19:53:03.596Z,8.98
2019-03-09T19:58:11.104Z,8.81
2019-03-09T20:03:19.273Z,7.93
2019-03-09T20:08:26.607Z,10.05
2019-03-09T20:13:33.770Z,8.04
2019-03-09T20:18:41.491Z,8.51
2019-03-09T20:23:49.336Z,7.19
2019-03-09T20:28:56.879Z,7.44
2019-03-09T20:34:04.814Z,8.70
2019-03-09T20:39:12.289Z,8.22
2019-03-09T20:44:20.178Z,8.30
2019-03-09T20:49:27.445Z,9.17
2019-03-09T20:54:35.275Z,7.56
2019-03-09T20:59:43.151Z,7.51
2019-03-09T21:04:50.444Z,7.15
2019-03-09T21:09:57.536Z,6.36
2019-03-09T21:15:04.788Z,5.25
2019-03-09T21:20:14.879Z,5.83
2019-03-09T21:25:19.328Z,6.63
2019-03-09T21:30:27.148Z,6.32
2019-03-09T21:35:35.588Z,6.62
2019-03-09T21:40:43.942Z,5.53
2019-03-09T21:45:53.784Z,6.49
2019-03-09T21:51:02.074Z,7.22
2019-03-09T21:56:11.220Z,6.61
2019-03-09T22:01:19.488Z,6.34
2019-03-09T22:06:27.757Z,8.31
2019-03-09T22:11:36.192Z,7.53
2019-03-09T22:16:44.585Z,6.13
2019-03-09T22:21:53.694Z,6.23
2019-03-09T22:27:02.494Z,8.30
2019-03-09T22:32:10.944Z,7.69
2019-03-09T22:37:18.570Z,7.67
2019-03-09T22:42:27.142Z,8.63
2019-03-09T22:47:34.933Z,9.43
2019-03-09T22:52:43.520Z,11.48
2019-03-09T22:57:51.916Z,12.39
2019-03-09T23:02:59.489Z,10.65
2019-03-09T23:08:07.194Z,13.72
2019-03-09T23:13:15.247Z,14.30
2019-03-09T23:18:24.208Z,14.74
2019-03-09T23:23:31.865Z,15.72
2019-03-09T23:28:39.546Z,16.63
2019-03-09T23:33:48.240Z,18.58
2019-03-09T23:38:55.844Z,16.74
2019-03-09T23:44:03.276Z,18.33
2019-03-09T23:49:11.170Z,18.22
2019-03-09T23:54:18.720Z,16.51
2019-03-09T23:59:27.457Z,16.84
